createdAt,value
2018-09-19T00:00:26.596Z,101645.40
2018-09-19T00:02:55.023Z,101650.22
2018-09-19T00:05:24.246Z,101650.86
2018-09-19T00:07:53.538Z,101651.59
2018-09-19T00:10:23.713Z,101653.44
2018-09-19T00:12:53.167Z,101662.00
2018-09-19T00:15:22.162Z,101660.87
2018-09-19T00:17:51.219Z,101657.36
2018-09-19T00:20:20.981Z,101650.55
2018-09-19T00:22:49.696Z,101657.77
2018-09-19T00:25:19.044Z,101653.33
2018-09-19T00:27:48.498Z,101658.69
2018-09-19T00:30:17.234Z,101669.09
2018-09-19T00:32:46.163Z,101665.29
2018-09-19T00:35:17.019Z,101664.24
2018-09-19T00:37:46.104Z,101666.82
2018-09-19T00:40:15.645Z,101665.19
2018-09-19T00:42:44.446Z,101665.38
2018-09-19T00:45:14.157Z,101662.38
2018-09-19T00:47:43.878Z,101665.78
2018-09-19T00:50:12.329Z,101663.10
2018-09-19T00:52:41.716Z,101660.64
2018-09-19T00:55:10.895Z,101661.37
2018-09-19T00:57:39.699Z,101658.69
2018-09-19T01:00:09.404Z,101661.37
2018-09-19T01:02:38.535Z,101659.92
2018-09-19T01:05:07.985Z,101657.43
2018-09-19T01:07:37.729Z,101661.34
2018-09-19T01:10:06.916Z,101661.57
2018-09-19T01:12:35.629Z,101664.25
2018-09-19T01:15:04.656Z,101665.27
2018-09-19T01:17:33.544Z,101666.42
2018-09-19T01:20:03.188Z,101668.56
2018-09-19T01:22:32.736Z,101667.03
2018-09-19T01:25:01.403Z,101674.34
2018-09-19T01:27:30.828Z,101670.11
2018-09-19T01:29:59.940Z,101672.09
2018-09-19T01:32:28.487Z,101680.64
2018-09-19T01:34:57.400Z,101681.48
2018-09-19T01:37:26.879Z,101680.43
2018-09-19T01:39:55.471Z,101677.56
2018-09-19T01:42:24.586Z,101674.05
2018-09-19T01:44:54.035Z,101673.54
2018-09-19T01:47:23.289Z,101678.07
2018-09-19T01:49:53.865Z,101680.75
2018-09-19T01:52:22.970Z,101683.63
2018-09-19T01:54:51.513Z,101687.35
2018-09-19T01:57:20.769Z,101686.84
2018-09-19T01:59:50.494Z,101689.42
2018-09-19T02:02:19.420Z,101686.41
2018-09-19T02:04:49.586Z,101683.95
2018-09-19T02:07:19.091Z,101680.63
2018-09-19T02:09:47.782Z,101682.70
2018-09-19T02:12:17.334Z,101679.91
2018-09-19T02:14:46.563Z,101679.30
2018-09-19T02:17:15.165Z,101680.20
2018-09-19T02:19:44.849Z,101674.13
2018-09-19T02:22:13.952Z,101667.72
2018-09-19T02:24:42.844Z,101668.02
2018-09-19T02:27:11.907Z,101660.27
2018-09-19T02:29:41.128Z,101662.45
2018-09-19T02:32:09.776Z,101656.66
2018-09-19T02:34:39.055Z,101662.12
2018-09-19T02:37:08.572Z,101659.45
2018-09-19T02:39:37.199Z,101663.14
2018-09-19T02:42:07.185Z,101668.39
2018-09-19T02:44:36.316Z,101664.48
2018-09-19T02:47:04.897Z,101675.62
2018-09-19T02:49:34.544Z,101674.18
2018-09-19T02:52:03.934Z,101671.93
2018-09-19T02:54:32.476Z,101668.02
2018-09-19T02:57:01.533Z,101676.89
2018-09-19T02:59:30.789Z,101673.89
2018-09-19T03:01:59.367Z,101672.44
2018-09-19T03:04:28.600Z,101661.83
2018-09-19T03:06:58.348Z,101668.23
2018-09-19T03:09:26.927Z,101661.72
2018-09-19T03:11:56.155Z,101656.90
2018-09-19T03:14:25.328Z,101651.83
2018-09-19T03:16:54.544Z,101647.30
2018-09-19T03:19:24.892Z,101640.39
2018-09-19T03:21:54.351Z,101637.28
2018-09-19T03:24:22.867Z,101638.00
2018-09-19T03:26:51.976Z,101634.79
2018-09-19T03:29:21.289Z,101639.02
2018-09-19T03:31:50.025Z,101645.91
2018-09-19T03:34:19.132Z,101645.29
2018-09-19T03:36:48.232Z,101642.22
2018-09-19T03:39:16.738Z,101643.23
2018-09-19T03:41:45.737Z,101637.55
2018-09-19T03:44:14.632Z,101636.42
2018-09-19T03:46:43.728Z,101646.30
2018-09-19T03:49:12.575Z,101644.86
2018-09-19T03:51:41.774Z,101644.02
2018-09-19T03:54:11.400Z,101640.84
2018-09-19T03:56:40.367Z,101644.97
2018-09-19T03:59:09.819Z,101637.66
2018-09-19T04:01:38.366Z,101628.60
2018-09-19T04:04:06.916Z,101624.58
2018-09-19T04:06:36.231Z,101622.92
2018-09-19T04:09:08.761Z,101615.21
2018-09-19T04:11:38.044Z,101610.36
2018-09-19T04:14:07.679Z,101601.17
2018-09-19T04:16:36.702Z,101599.64
2018-09-19T04:19:06.368Z,101596.46
2018-09-19T04:21:35.358Z,101601.28
2018-09-19T04:24:04.771Z,101598.52
2018-09-19T04:26:33.873Z,101597.90
2018-09-19T04:29:02.594Z,101591.62
2018-09-19T04:31:31.625Z,101596.59
2018-09-19T04:34:00.911Z,101593.69
2018-09-19T04:36:29.559Z,101594.20
2018-09-19T04:38:59.227Z,101592.67
2018-09-19T04:41:28.451Z,101586.69
2018-09-19T04:43:57.052Z,101584.41
2018-09-19T04:46:26.389Z,101584.65
2018-09-19T04:48:55.581Z,101585.55
2018-09-19T04:51:24.288Z,101588.98
2018-09-19T04:53:52.846Z,101588.54
2018-09-19T04:56:23.347Z,101580.92
2018-09-19T04:58:51.932Z,101588.33
2018-09-19T05:01:21.363Z,101583.39
2018-09-19T05:03:50.723Z,101578.36
2018-09-19T05:06:19.412Z,101579.98
2018-09-19T05:08:47.954Z,101579.80
2018-09-19T05:11:17.400Z,101580.73
2018-09-19T05:13:46.692Z,101583.09
2018-09-19T05:16:15.330Z,101577.22
2018-09-19T05:18:46.043Z,101572.04
2018-09-19T05:21:14.964Z,101559.69
2018-09-19T05:23:43.916Z,101546.06
2018-09-19T05:26:13.368Z,101557.00
2018-09-19T05:28:42.416Z,101549.80
2018-09-19T05:31:11.075Z,101561.31
2018-09-19T05:33:40.222Z,101575.77
2018-09-19T05:36:09.406Z,101579.47
2018-09-19T05:38:38.173Z,101579.57
2018-09-19T05:41:07.519Z,101579.57
2018-09-19T05:43:36.672Z,101576.06
2018-09-19T05:46:05.859Z,101584.42
2018-09-19T05:48:34.965Z,101585.45
2018-09-19T05:51:04.728Z,101594.32
2018-09-19T05:53:33.319Z,101592.98
2018-09-19T05:56:02.283Z,101608.05
2018-09-19T05:58:32.223Z,101612.07
2018-09-19T06:01:00.809Z,101611.75
2018-09-19T06:03:30.345Z,101614.43
2018-09-19T06:05:59.215Z,101611.23
2018-09-19T06:08:27.717Z,101605.37
2018-09-19T06:10:56.885Z,101605.14
2018-09-19T06:13:26.046Z,101600.39
2018-09-19T06:15:54.649Z,101597.81
2018-09-19T06:18:23.144Z,101585.84
2018-09-19T06:20:52.802Z,101586.67
2018-09-19T06:23:21.811Z,101593.19
2018-09-19T06:25:50.894Z,101597.60
2018-09-19T06:28:20.584Z,101595.02
2018-09-19T06:30:49.364Z,101598.47
2018-09-19T06:33:18.752Z,101589.80
2018-09-19T06:35:47.739Z,101591.94
2018-09-19T06:38:16.879Z,101590.06
2018-09-19T06:40:45.651Z,101595.84
2018-09-19T06:43:14.760Z,101600.63
2018-09-19T06:45:44.186Z,101610.30
2018-09-19T06:48:13.257Z,101609.94
2018-09-19T06:50:42.217Z,101605.56
2018-09-19T06:53:10.936Z,101617.41
2018-09-19T06:55:40.616Z,101614.61
2018-09-19T06:58:09.930Z,101619.61
2018-09-19T07:00:39.143Z,101626.48
2018-09-19T07:03:08.004Z,101639.84
2018-09-19T07:05:37.395Z,101652.05
2018-09-19T07:08:06.330Z,101650.28
2018-09-19T07:10:35.564Z,101651.53
2018-09-19T07:13:04.683Z,101649.52
2018-09-19T07:15:33.956Z,101651.34
2018-09-19T07:18:03.142Z,101648.92
2018-09-19T07:20:32.375Z,101642.19
2018-09-19T07:23:01.656Z,101652.55
2018-09-19T07:25:30.263Z,101647.75
2018-09-19T07:27:59.694Z,101649.85
2018-09-19T07:30:29.138Z,101645.92
2018-09-19T07:32:58.125Z,101636.78
2018-09-19T07:35:27.354Z,101636.69
2018-09-19T07:37:56.881Z,101642.21
2018-09-19T07:40:26.281Z,101642.87
2018-09-19T07:42:55.455Z,101644.28
2018-09-19T07:45:24.149Z,101649.22
2018-09-19T07:47:53.136Z,101648.34
2018-09-19T07:50:22.321Z,101648.91
2018-09-19T07:52:52.170Z,101653.77
2018-09-19T07:55:21.427Z,101651.64
2018-09-19T07:57:50.465Z,101658.05
2018-09-19T08:00:19.122Z,101660.02
2018-09-19T08:02:48.190Z,101654.61
2018-09-19T08:05:17.508Z,101661.13
2018-09-19T08:07:46.171Z,101670.14
2018-09-19T08:10:15.996Z,101655.23
2018-09-19T08:12:45.379Z,101661.98
2018-09-19T08:15:13.924Z,101662.78
2018-09-19T08:17:42.669Z,101670.30
2018-09-19T08:20:11.878Z,101664.64
2018-09-19T08:22:40.615Z,101678.00
2018-09-19T08:25:09.728Z,101676.95
2018-09-19T08:27:39.416Z,101670.05
2018-09-19T08:30:08.024Z,101672.62
2018-09-19T08:32:38.030Z,101660.59
2018-09-19T08:35:07.708Z,101664.27
2018-09-19T08:37:36.290Z,101659.70
2018-09-19T08:40:07.470Z,101663.47
2018-09-19T08:42:36.012Z,101673.23
2018-09-19T08:45:04.703Z,101682.67
2018-09-19T08:47:33.764Z,101683.50
2018-09-19T08:50:04.440Z,101690.31
2018-09-19T08:52:34.049Z,101694.11
2018-09-19T08:55:04.925Z,101693.19
2018-09-19T08:57:34.203Z,101695.50
2018-09-19T09:00:03.624Z,101683.23
2018-09-19T09:02:32.170Z,101686.60
2018-09-19T09:05:01.883Z,101694.23
2018-09-19T09:07:30.980Z,101704.37
2018-09-19T09:09:59.523Z,101710.52
2018-09-19T09:12:28.879Z,101707.19
2018-09-19T09:14:57.845Z,101713.42
2018-09-19T09:17:26.592Z,101708.95
2018-09-19T09:19:56.316Z,101699.31
2018-09-19T09:22:25.778Z,101716.38
2018-09-19T09:24:54.340Z,101711.97
2018-09-19T09:27:23.410Z,101713.61
2018-09-19T09:29:52.802Z,101715.20
2018-09-19T09:32:22.123Z,101715.08
2018-09-19T09:34:51.294Z,101723.16
2018-09-19T09:37:20.428Z,101728.70
2018-09-19T09:39:49.466Z,101726.23
2018-09-19T09:42:18.041Z,101722.38
2018-09-19T09:44:46.988Z,101726.27
2018-09-19T09:47:16.422Z,101723.61
2018-09-19T09:49:45.032Z,101725.05
2018-09-19T09:52:13.859Z,101728.35
2018-09-19T09:54:42.898Z,101724.91
2018-09-19T09:57:12.135Z,101716.11
2018-09-19T09:59:41.224Z,101719.91
2018-09-19T10:02:10.536Z,101730.05
2018-09-19T10:04:39.581Z,101726.46
2018-09-19T10:07:08.434Z,101734.62
2018-09-19T10:09:37.816Z,101733.18
2018-09-19T10:12:07.205Z,101728.19
2018-09-19T10:14:36.309Z,101733.61
2018-09-19T10:17:06.298Z,101739.20
2018-09-19T10:19:35.138Z,101732.55
2018-09-19T10:22:04.549Z,101727.47
2018-09-19T10:24:33.965Z,101723.71
2018-09-19T10:27:03.389Z,101729.05
2018-09-19T10:29:32.296Z,101729.66
2018-09-19T10:32:01.163Z,101725.05
2018-09-19T10:34:30.383Z,101729.42
2018-09-19T10:36:58.951Z,101723.61
2018-09-19T10:39:28.398Z,101727.69
2018-09-19T10:41:57.641Z,101724.20
2018-09-19T10:44:26.163Z,101717.53
2018-09-19T10:46:55.674Z,101720.16
2018-09-19T10:49:25.036Z,101717.63
2018-09-19T10:51:53.630Z,101721.99
2018-09-19T10:54:23.144Z,101720.66
2018-09-19T10:56:52.483Z,101713.71
2018-09-19T10:59:21.132Z,101712.45
2018-09-19T11:01:50.144Z,101713.64
2018-09-19T11:04:20.734Z,101709.33
2018-09-19T11:06:49.426Z,101710.92
2018-09-19T11:09:18.886Z,101704.99
2018-09-19T11:11:48.142Z,101708.69
2018-09-19T11:14:17.808Z,101714.44
2018-09-19T11:16:46.809Z,101712.01
2018-09-19T11:19:16.190Z,101705.98
2018-09-19T11:21:45.457Z,101709.22
2018-09-19T11:24:15.053Z,101713.34
2018-09-19T11:26:44.511Z,101706.91
2018-09-19T11:29:13.238Z,101705.63
2018-09-19T11:31:42.510Z,101705.32
2018-09-19T11:34:11.784Z,101690.58
2018-09-19T11:36:40.265Z,101704.34
2018-09-19T11:39:11.712Z,101707.98
2018-09-19T11:41:41.205Z,101704.79
2018-09-19T11:44:11.123Z,101686.06
2018-09-19T11:46:40.296Z,101702.64
2018-09-19T11:49:09.033Z,101697.42
2018-09-19T11:51:38.057Z,101696.84
2018-09-19T11:54:08.137Z,101703.33
2018-09-19T11:56:37.696Z,101695.52
2018-09-19T11:59:06.771Z,101698.73
2018-09-19T12:01:36.400Z,101696.80
2018-09-19T12:04:06.336Z,101694.30
2018-09-19T12:06:35.438Z,101695.85
2018-09-19T12:09:06.217Z,101697.19
2018-09-19T12:11:35.798Z,101681.90
2018-09-19T12:14:05.857Z,101694.16
2018-09-19T12:16:34.887Z,101681.45
2018-09-19T12:19:04.554Z,101678.56
2018-09-19T12:21:33.376Z,101685.23
2018-09-19T12:24:01.997Z,101685.07
2018-09-19T12:26:31.103Z,101685.09
2018-09-19T12:29:01.247Z,101689.16
2018-09-19T12:31:29.823Z,101687.42
2018-09-19T12:33:59.030Z,101694.46
2018-09-19T12:36:28.598Z,101694.73
2018-09-19T12:38:57.554Z,101692.20
2018-09-19T12:41:26.865Z,101688.98
2018-09-19T12:43:56.398Z,101681.67
2018-09-19T12:46:24.922Z,101673.80
2018-09-19T12:48:54.684Z,101678.98
2018-09-19T12:51:23.793Z,101684.23
2018-09-19T12:53:52.296Z,101677.19
2018-09-19T12:56:21.283Z,101676.66
2018-09-19T12:58:51.011Z,101672.55
2018-09-19T13:01:19.932Z,101671.67
2018-09-19T13:03:48.956Z,101669.22
2018-09-19T13:06:18.176Z,101666.77
2018-09-19T13:08:47.661Z,101663.19
2018-09-19T13:11:16.280Z,101654.22
2018-09-19T13:13:45.740Z,101663.23
2018-09-19T13:16:18.545Z,101669.24
2018-09-19T13:18:48.014Z,101664.53
2018-09-19T13:21:16.944Z,101657.13
2018-09-19T13:23:47.934Z,101671.27
2018-09-19T13:26:16.750Z,101660.20
2018-09-19T13:28:45.876Z,101666.45
2018-09-19T13:31:16.150Z,101662.95
2018-09-19T13:33:45.122Z,101655.55
2018-09-19T13:36:14.009Z,101663.46
2018-09-19T13:38:43.159Z,101656.67
2018-09-19T13:41:12.406Z,101661.33
2018-09-19T13:43:41.079Z,101661.31
2018-09-19T13:46:10.821Z,101663.74
2018-09-19T13:48:43.880Z,101668.91
2018-09-19T13:51:17.298Z,101675.32
2018-09-19T13:53:46.791Z,101674.21
2018-09-19T13:56:15.823Z,101663.93
2018-09-19T13:58:45.442Z,101675.73
2018-09-19T14:01:15.927Z,101673.57
2018-09-19T14:03:46.377Z,101666.75
2018-09-19T14:06:15.756Z,101673.52
2018-09-19T14:08:45.072Z,101665.91
2018-09-19T14:11:14.988Z,101668.08
2018-09-19T14:13:43.821Z,101668.94
2018-09-19T14:16:12.941Z,101668.45
2018-09-19T14:18:43.503Z,101658.05
2018-09-19T14:21:12.039Z,101664.59
2018-09-19T14:23:42.521Z,101664.34
2018-09-19T14:26:12.170Z,101668.44
2018-09-19T14:28:40.793Z,101659.73
2018-09-19T14:31:10.376Z,101671.97
2018-09-19T14:33:40.337Z,101665.98
2018-09-19T14:36:08.895Z,101671.46
2018-09-19T14:38:38.365Z,101672.55
2018-09-19T14:41:07.794Z,101665.19
2018-09-19T14:43:36.412Z,101671.98
2018-09-19T14:46:06.522Z,101667.06
2018-09-19T14:48:37.881Z,101660.19
2018-09-19T14:51:07.197Z,101672.19
2018-09-19T14:53:36.254Z,101671.35
2018-09-19T14:56:07.324Z,101674.90
2018-09-19T14:58:36.871Z,101685.25
2018-09-19T15:01:06.539Z,101682.76
2018-09-19T15:03:36.028Z,101688.16
2018-09-19T15:06:05.178Z,101680.49
2018-09-19T15:08:34.236Z,101678.69
2018-09-19T15:11:02.988Z,101672.77
2018-09-19T15:13:33.020Z,101676.92
2018-09-19T15:16:02.158Z,101677.47
2018-09-19T15:20:59.000Z,101689.28
2018-09-19T15:23:29.005Z,101685.65
2018-09-19T15:26:02.860Z,101686.45
2018-09-19T15:28:34.187Z,101683.95
2018-09-19T15:33:30.157Z,101678.28
2018-09-19T15:36:00.290Z,101678.76
2018-09-19T15:38:29.500Z,101672.97
2018-09-19T15:40:58.511Z,101672.97
2018-09-19T15:43:27.081Z,101673.03
2018-09-19T15:45:56.924Z,101671.38
2018-09-19T15:48:26.247Z,101674.37
2018-09-19T15:50:54.878Z,101673.44
2018-09-19T15:53:24.382Z,101676.38
2018-09-19T15:55:53.416Z,101675.56
2018-09-19T15:58:22.470Z,101679.85
2018-09-19T16:00:51.172Z,101682.81
2018-09-19T16:03:20.006Z,101679.25
2018-09-19T16:05:49.378Z,101687.89
2018-09-19T16:08:18.612Z,101673.41
2018-09-19T16:10:47.983Z,101687.77
2018-09-19T16:13:16.522Z,101685.88
2018-09-19T16:15:46.238Z,101686.67
2018-09-19T16:18:15.406Z,101688.52
2018-09-19T16:20:44.848Z,101680.56
2018-09-19T16:23:13.529Z,101686.20
2018-09-19T16:25:42.172Z,101685.85
2018-09-19T16:28:11.917Z,101686.09
2018-09-19T16:30:41.288Z,101688.22
2018-09-19T16:33:10.134Z,101689.78
2018-09-19T16:35:38.709Z,101694.06
2018-09-19T16:38:07.574Z,101698.92
2018-09-19T16:40:39.633Z,101694.27
2018-09-19T16:43:08.665Z,101685.83
2018-09-19T16:45:37.322Z,101692.58
2018-09-19T16:48:06.881Z,101700.16
2018-09-19T16:50:36.292Z,101693.91
2018-09-19T16:53:05.839Z,101699.57
2018-09-19T16:55:34.449Z,101695.47
2018-09-19T16:58:03.806Z,101700.03
2018-09-19T17:00:32.878Z,101701.39
2018-09-19T17:03:02.211Z,101696.99
2018-09-19T17:05:32.210Z,101701.63
2018-09-19T17:08:02.218Z,101707.02
2018-09-19T17:10:31.833Z,101705.89
2018-09-19T17:13:00.998Z,101708.30
2018-09-19T17:15:29.693Z,101708.04
2018-09-19T17:17:59.802Z,101700.14
2018-09-19T17:20:28.893Z,101704.44
2018-09-19T17:22:58.333Z,101705.76
2018-09-19T17:25:27.471Z,101703.28
2018-09-19T17:27:56.040Z,101714.61
2018-09-19T17:30:25.458Z,101712.03
2018-09-19T17:32:54.638Z,101718.77
2018-09-19T17:35:24.883Z,101718.70
2018-09-19T17:37:54.499Z,101718.63
2018-09-19T17:40:24.170Z,101722.66
2018-09-19T17:42:53.754Z,101718.25
2018-09-19T17:45:22.412Z,101720.06
2018-09-19T17:47:51.113Z,101717.58
2018-09-19T17:50:20.409Z,101719.11
2018-09-19T17:52:49.741Z,101727.95
2018-09-19T17:55:19.129Z,101729.48
2018-09-19T17:57:48.342Z,101730.23
2018-09-19T18:00:17.149Z,101726.92
2018-09-19T18:02:45.891Z,101729.59
2018-09-19T18:05:14.939Z,101730.33
2018-09-19T18:07:44.310Z,101737.92
2018-09-19T18:10:13.480Z,101743.00
2018-09-19T18:12:42.646Z,101734.00
2018-09-19T18:15:11.412Z,101730.20
2018-09-19T18:17:40.403Z,101729.04
2018-09-19T18:20:09.724Z,101731.48
2018-09-19T18:22:38.842Z,101727.08
2018-09-19T18:25:08.529Z,101734.63
2018-09-19T18:27:37.986Z,101735.36
2018-09-19T18:30:07.670Z,101741.73
2018-09-19T18:32:36.994Z,101738.11
2018-09-19T18:35:06.590Z,101750.72
2018-09-19T18:37:35.261Z,101753.06
2018-09-19T18:40:04.506Z,101760.30
2018-09-19T18:42:34.063Z,101761.78
2018-09-19T18:45:03.570Z,101760.63
2018-09-19T18:47:33.128Z,101760.28
2018-09-19T18:50:02.564Z,101757.78
2018-09-19T18:52:31.193Z,101763.97
2018-09-19T18:54:59.997Z,101767.94
2018-09-19T18:57:29.125Z,101765.19
2018-09-19T18:59:58.612Z,101764.34
2018-09-19T19:02:27.941Z,101757.47
2018-09-19T19:04:57.597Z,101768.23
2018-09-19T19:07:26.484Z,101763.73
2018-09-19T19:09:55.148Z,101767.44
2018-09-19T19:12:24.162Z,101769.20
2018-09-19T19:14:53.627Z,101773.98
2018-09-19T19:17:22.885Z,101766.86
2018-09-19T19:19:52.260Z,101768.34
2018-09-19T19:22:21.034Z,101773.59
2018-09-19T19:24:50.390Z,101775.70
2018-09-19T19:27:19.147Z,101773.47
2018-09-19T19:29:47.729Z,101775.23
2018-09-19T19:32:21.229Z,101780.05
2018-09-19T19:34:50.775Z,101783.98
2018-09-19T19:37:23.102Z,101790.13
2018-09-19T19:39:53.789Z,101799.59
2018-09-19T19:42:23.316Z,101789.27
2018-09-19T19:44:52.895Z,101787.31
2018-09-19T19:47:21.780Z,101790.72
2018-09-19T19:49:51.044Z,101788.78
2018-09-19T19:52:20.105Z,101790.02
2018-09-19T19:54:49.604Z,101794.00
2018-09-19T19:57:19.112Z,101796.55
2018-09-19T19:59:47.992Z,101785.63
2018-09-19T20:02:17.425Z,101796.05
2018-09-19T20:04:46.822Z,101795.41
2018-09-19T20:07:16.216Z,101799.08
2018-09-19T20:09:45.133Z,101791.75
2018-09-19T20:12:13.786Z,101797.84
2018-09-19T20:14:42.400Z,101805.88
2018-09-19T20:17:11.199Z,101800.39
2018-09-19T20:19:40.274Z,101797.55
2018-09-19T20:22:11.031Z,101802.09
2018-09-19T20:24:40.767Z,101801.72
2018-09-19T20:27:09.803Z,101798.88
2018-09-19T20:29:38.393Z,101801.45
2018-09-19T20:32:07.835Z,101809.16
2018-09-19T20:34:37.172Z,101807.44
2018-09-19T20:37:07.097Z,101810.30
2018-09-19T20:39:35.815Z,101809.41
2018-09-19T20:42:04.580Z,101806.87
2018-09-19T20:44:34.070Z,101805.15
2018-09-19T20:47:04.185Z,101795.53
2018-09-19T20:49:33.468Z,101798.09
2018-09-19T20:52:03.284Z,101798.54
2018-09-19T20:54:32.613Z,101800.65
2018-09-19T20:57:01.988Z,101798.40
2018-09-19T20:59:31.556Z,101805.59
2018-09-19T21:02:00.267Z,101802.30
2018-09-19T21:04:29.986Z,101806.34
2018-09-19T21:06:59.026Z,101801.98
2018-09-19T21:09:29.105Z,101804.09
2018-09-19T21:11:58.677Z,101812.25
2018-09-19T21:14:28.395Z,101801.19
2018-09-19T21:16:57.631Z,101802.74
2018-09-19T21:19:26.889Z,101805.95
2018-09-19T21:21:56.500Z,101812.70
2018-09-19T21:24:25.028Z,101806.95
2018-09-19T21:26:53.757Z,101808.51
2018-09-19T21:29:23.446Z,101805.45
2018-09-19T21:31:52.923Z,101801.27
2018-09-19T21:34:22.732Z,101800.95
2018-09-19T21:36:52.110Z,101800.56
2018-09-19T21:39:22.076Z,101799.97
2018-09-19T21:41:51.530Z,101802.83
2018-09-19T21:44:21.321Z,101796.53
2018-09-19T21:46:50.721Z,101797.29
2018-09-19T21:49:19.363Z,101796.07
2018-09-19T21:51:48.285Z,101787.59
2018-09-19T21:54:18.332Z,101792.91
2018-09-19T21:56:47.767Z,101793.38
2018-09-19T21:59:17.537Z,101794.42
2018-09-19T22:01:46.168Z,101793.82
2018-09-19T22:04:14.922Z,101795.61
2018-09-19T22:06:44.682Z,101797.47
2018-09-19T22:09:14.016Z,101792.24
2018-09-19T22:11:43.461Z,101789.16
2018-09-19T22:14:12.207Z,101786.91
2018-09-19T22:16:40.877Z,101784.20
2018-09-19T22:19:10.524Z,101782.23
2018-09-19T22:21:39.907Z,101781.33
2018-09-19T22:24:10.025Z,101778.55
2018-09-19T22:26:38.786Z,101776.61
2018-09-19T22:29:08.379Z,101777.88
2018-09-19T22:31:37.538Z,101778.83
2018-09-19T22:34:06.665Z,101770.16
2018-09-19T22:36:36.216Z,101774.31
2018-09-19T22:39:07.320Z,101769.68
2018-09-19T22:41:36.590Z,101770.12
2018-09-19T22:44:06.942Z,101777.08
2018-09-19T22:46:35.766Z,101770.59
2018-09-19T22:49:04.367Z,101766.98
2018-09-19T22:51:33.061Z,101770.94
2018-09-19T22:54:01.729Z,101770.31
2018-09-19T22:56:30.783Z,101773.55
2018-09-19T22:59:01.471Z,101771.05
2018-09-19T23:01:33.565Z,101771.29
2018-09-19T23:04:03.273Z,101771.72
2018-09-19T23:06:32.539Z,101771.56
2018-09-19T23:09:02.221Z,101773.85
2018-09-19T23:11:31.535Z,101771.82
2018-09-19T23:14:00.515Z,101772.25
2018-09-19T23:16:29.911Z,101773.83
2018-09-19T23:18:59.067Z,101768.36
2018-09-19T23:21:27.628Z,101759.89
2018-09-19T23:23:56.516Z,101752.25
2018-09-19T23:26:25.446Z,101748.13
2018-09-19T23:28:54.794Z,101755.00
2018-09-19T23:31:23.835Z,101753.57
2018-09-19T23:33:53.266Z,101750.48
2018-09-19T23:36:22.616Z,101750.39
2018-09-19T23:38:51.342Z,101748.10
2018-09-19T23:41:20.119Z,101751.85
2018-09-19T23:43:49.643Z,101751.22
2018-09-19T23:46:18.702Z,101747.41
2018-09-19T23:48:47.953Z,101747.01
2018-09-19T23:51:17.433Z,101750.95
2018-09-19T23:53:46.511Z,101752.95
2018-09-19T23:56:15.095Z,101751.84
2018-09-19T23:58:44.435Z,101747.41
